Capo Vado — IPWV — position and weather

sailwx.info

Track history (hours):
 
Tides and Currents Weather Stations Pressure Air Temp Water Temp Dewpoint Dewpoint Depression Visibility Wind Speed Wind Dir Waves Ship Positions

Capo Vado

Last reported at 2016-Jul-27 17:23 UTC. Time now 2016-Jul-28 08:36 UTC.
Position N 44°18' E 008°29'.

Length 30 m; draft 4.5 m.

Type: Tug. MMSI: 247228400.

Date/timePositionNaut miles runAvg speedWind from/ knotsBaromVisibWave heightAir tempDewpointWater temp
2016-Jul-27 17:23N 44°18' E 008°29'0 0.1
2016-Jul-27 14:25N 44°19' E 008°30'0 0.3
2016-Jul-27 12:33N 44°19' E 008°30'3 2.8
2016-Jul-27 11:33N 44°17' E 008°28'3 3.2
2016-Jul-27 10:32N 44°19' E 008°31'1 0.9
2016-Jul-27 09:17N 44°18' E 008°29'0 0.0
2016-Jul-27 08:26N 44°18' E 008°29'0 0.0
2016-Jul-27 07:32N 44°18' E 008°29'0 0.0
2016-Jul-27 05:21N 44°18' E 008°29'1 1.0
2016-Jul-27 04:26N 44°19' E 008°30'1 0.5
2016-Jul-27 02:30N 44°18' E 008°29'0 0.0
2016-Jul-26 20:27N 44°18' E 008°29'0 0.0
2016-Jul-26 19:27N 44°18' E 008°29'0 0.0
2016-Jul-26 18:33N 44°18' E 008°29'0 0.0
2016-Jul-26 17:27N 44°18' E 008°29'0 0.0
2016-Jul-26 15:33N 44°18' E 008°29'0 0.0
2016-Jul-26 08:27N 44°18' E 008°29'0 0.0
2016-Jul-26 07:25N 44°18' E 008°29'2 2.3
2016-Jul-26 06:25N 44°17' E 008°28'1 0.7
2016-Jul-26 05:29N 44°16' E 008°28'3 3.7
2016-Jul-26 04:33N 44°19' E 008°30'1 0.7
2016-Jul-26 03:23N 44°18' E 008°29'0 0.0
2016-Jul-26 02:29N 44°18' E 008°29'0 0.0
2016-Jul-26 01:23N 44°18' E 008°29'0 0.0
2016-Jul-26 00:29N 44°18' E 008°29'0 0.0
2016-Jul-25 23:29N 44°18' E 008°29'0 0.0
2016-Jul-25 22:23N 44°18' E 008°29'0 0.0
2016-Jul-25 21:29N 44°18' E 008°29'0 0.0
2016-Jul-25 20:29N 44°18' E 008°29'0 0.0
2016-Jul-25 19:29N 44°18' E 008°29'0 0.0
2016-Jul-25 18:29N 44°18' E 008°29'0 0.0
2016-Jul-25 17:32N 44°18' E 008°29'0 0.0
2016-Jul-25 16:29N 44°18' E 008°29'0 0.0
2016-Jul-25 15:29N 44°18' E 008°29'0 0.0
2016-Jul-25 14:29N 44°18' E 008°29'0 0.0
2016-Jul-25 13:29N 44°18' E 008°29'0 0.0
2016-Jul-25 12:29N 44°18' E 008°29'0 0.0
2016-Jul-25 11:32N 44°18' E 008°29'0 0.0
2016-Jul-25 10:29N 44°18' E 008°29'0 0.0
2016-Jul-25 09:32N 44°18' E 008°29'0 0.0
2016-Jul-25 08:32N 44°18' E 008°29'0 0.0
2016-Jul-25 07:32N 44°18' E 008°29'0 0.0
2016-Jul-25 06:32N 44°18' E 008°29'0 0.0
2016-Jul-25 05:26N 44°18' E 008°29'0 0.0
2016-Jul-25 04:32N 44°18' E 008°29'0 0.0
2016-Jul-25 03:32N 44°18' E 008°29'0 0.0
2016-Jul-25 02:32N 44°18' E 008°29'0 0.0
2016-Jul-25 01:29N 44°18' E 008°29'0 0.0
2016-Jul-25 00:32N 44°18' E 008°29'0 0.0
2016-Jul-24 23:32N 44°18' E 008°29'0 0.0
2016-Jul-24 22:32N 44°18' E 008°29'0 0.0
2016-Jul-24 21:32N 44°18' E 008°29'0 0.0
2016-Jul-24 20:32N 44°18' E 008°29'0 0.0
2016-Jul-24 19:32N 44°18' E 008°29'0 0.0
2016-Jul-24 18:26N 44°18' E 008°29'0 0.0
2016-Jul-24 17:32N 44°18' E 008°29'0 0.0
2016-Jul-24 16:32N 44°18' E 008°29'0 0.0
2016-Jul-24 15:32N 44°18' E 008°29'0 0.0
2016-Jul-24 14:26N 44°18' E 008°29'0 0.0
2016-Jul-24 13:32N 44°18' E 008°29'0 0.0
2016-Jul-24 12:32N 44°18' E 008°29'0 0.0
2016-Jul-24 11:32N 44°18' E 008°29'0 0.0
2016-Jul-24 10:32N 44°18' E 008°29'0 0.0
2016-Jul-24 09:32N 44°18' E 008°29'0 0.0
2016-Jul-24 08:32N 44°18' E 008°29'0 0.0
2016-Jul-24 07:32N 44°18' E 008°29'0 0.0
2016-Jul-24 06:32N 44°18' E 008°29'0 0.0
2016-Jul-24 05:32N 44°18' E 008°29'0 0.0
2016-Jul-24 04:32N 44°18' E 008°29'0 0.0
2016-Jul-24 03:32N 44°18' E 008°29'0 0.0
2016-Jul-24 02:32N 44°18' E 008°29'0 0.0
2016-Jul-24 01:32N 44°18' E 008°29'0 0.0
2016-Jul-24 00:32N 44°18' E 008°29'0 0.0
2016-Jul-23 23:32N 44°18' E 008°29'0 0.0
2016-Jul-23 22:32N 44°18' E 008°29'0 0.0
2016-Jul-23 21:32N 44°18' E 008°29'0 0.0
2016-Jul-23 20:26N 44°18' E 008°29'0 0.0
2016-Jul-23 19:26N 44°18' E 008°29'0 0.0
2016-Jul-23 18:32N 44°18' E 008°29'0 0.0
2016-Jul-23 17:26N 44°18' E 008°29'0 0.0
2016-Jul-23 16:32N 44°18' E 008°29'0 0.0
2016-Jul-23 15:32N 44°18' E 008°29'0 0.0
2016-Jul-23 14:32N 44°18' E 008°29'0 0.0
2016-Jul-23 13:32N 44°18' E 008°29'0 0.0
2016-Jul-23 12:20N 44°18' E 008°29'0 0.0
2016-Jul-23 11:32N 44°18' E 008°29'0 0.0
2016-Jul-23 10:32N 44°18' E 008°29'0 0.0
2016-Jul-23 09:32N 44°18' E 008°29'0 0.0
2016-Jul-23 08:32N 44°18' E 008°29'0 0.0
2016-Jul-23 07:32N 44°18' E 008°29'0 0.0
2016-Jul-23 06:32N 44°18' E 008°29'0 0.0
2016-Jul-23 04:26N 44°18' E 008°29'0 0.0
2016-Jul-23 03:26N 44°18' E 008°29'0 0.0
2016-Jul-23 02:26N 44°18' E 008°29'0 0.0
2016-Jul-23 01:32N 44°18' E 008°29'0 0.0
2016-Jul-23 00:32N 44°18' E 008°29'0 0.0
2016-Jul-22 23:32N 44°18' E 008°29'0 0.0
2016-Jul-22 22:32N 44°18' E 008°29'0 0.0
2016-Jul-22 21:32N 44°18' E 008°29'0 0.0
2016-Jul-22 20:32N 44°18' E 008°29'0 0.0
2016-Jul-22 19:32N 44°18' E 008°29'0 0.0
2016-Jul-22 18:20N 44°18' E 008°29'3 3.9
2016-Jul-22 17:33N 44°16' E 008°27'4 3.5
2016-Jul-22 16:31N 44°19' E 008°30'1 0.6
2016-Jul-22 15:31N 44°18' E 008°29'0 0.0
2016-Jul-22 14:31N 44°18' E 008°29'0 0.0
2016-Jul-22 13:31N 44°18' E 008°29'0 0.0
2016-Jul-22 12:31N 44°18' E 008°29'0 0.0
2016-Jul-22 11:31N 44°18' E 008°29'0 0.0
2016-Jul-22 10:31N 44°18' E 008°29'0 0.0
2016-Jul-22 09:31N 44°18' E 008°29'0 0.0
2016-Jul-22 08:31N 44°18' E 008°29'0 0.0
2016-Jul-22 07:31N 44°18' E 008°29'3 1.5
2016-Jul-22 05:33N 44°16' E 008°28'2 1.5
2016-Jul-22 04:33N 44°17' E 008°29'1 1.4
2016-Jul-22 03:31N 44°18' E 008°29'0 0.0
2016-Jul-22 02:31N 44°18' E 008°29'0 0.0
2016-Jul-22 01:31N 44°18' E 008°29'0 0.0
2016-Jul-22 00:31N 44°18' E 008°29'0 0.0
2016-Jul-21 23:31N 44°18' E 008°29'0 0.0
2016-Jul-21 22:25N 44°18' E 008°29'0 0.0
2016-Jul-21 21:31N 44°18' E 008°29'0 0.0
2016-Jul-21 20:31N 44°18' E 008°29'0 0.0
2016-Jul-21 19:31N 44°18' E 008°29'0 0.0
2016-Jul-21 18:31N 44°18' E 008°29'0 0.0
2016-Jul-21 17:31N 44°18' E 008°29'0 0.0
2016-Jul-21 16:31N 44°18' E 008°29'0 0.0
2016-Jul-21 15:31N 44°18' E 008°29'0 0.0
2016-Jul-21 14:31N 44°18' E 008°29'0 0.0
2016-Jul-21 13:31N 44°18' E 008°29'0 0.0
2016-Jul-21 12:31N 44°18' E 008°29'0 0.0
2016-Jul-21 11:19N 44°18' E 008°29'0 0.0
2016-Jul-21 10:31N 44°18' E 008°29'0 0.3
2016-Jul-21 09:33N 44°19' E 008°30'0 0.3
2016-Jul-21 08:29N 44°18' E 008°29'0 0.0
2016-Jul-21 07:29N 44°18' E 008°29'0 0.0
2016-Jul-21 06:29N 44°18' E 008°29'0 0.0
2016-Jul-21 05:29N 44°18' E 008°29'0 0.0
2016-Jul-21 04:29N 44°18' E 008°29'0 0.0
2016-Jul-21 03:29N 44°18' E 008°29'0 0.0
2016-Jul-21 02:29N 44°18' E 008°29'0 0.0
2016-Jul-21 01:29N 44°18' E 008°29'0 0.0
2016-Jul-21 00:29N 44°18' E 008°29'0 0.0
2016-Jul-20 23:29N 44°18' E 008°29'0 0.0
2016-Jul-20 22:29N 44°18' E 008°29'0 0.0
2016-Jul-20 21:29N 44°18' E 008°29'0 0.0
2016-Jul-20 20:29N 44°18' E 008°29'0 0.0
2016-Jul-20 19:29N 44°18' E 008°29'0 0.0
2016-Jul-20 18:29N 44°18' E 008°29'0 0.0
2016-Jul-20 17:29N 44°18' E 008°29'0 0.0
2016-Jul-20 16:23N 44°18' E 008°29'0 0.0
2016-Jul-20 15:17N 44°18' E 008°29'0 0.0
2016-Jul-20 14:29N 44°18' E 008°29'0 0.0
2016-Jul-20 13:29N 44°18' E 008°29'0 0.0
2016-Jul-20 12:29N 44°18' E 008°29'0 0.0
2016-Jul-20 11:23N 44°18' E 008°29'0 0.0
2016-Jul-20 10:29N 44°18' E 008°29'0 0.0
2016-Jul-20 09:29N 44°18' E 008°29'0 0.0
2016-Jul-20 08:29N 44°18' E 008°29'0 0.0
2016-Jul-20 07:11N 44°18' E 008°29'0 0.0
2016-Jul-20 06:29N 44°18' E 008°29'0 0.0
2016-Jul-20 05:23N 44°18' E 008°29'0 0.0
2016-Jul-20 04:29N 44°18' E 008°29'1 0.6
2016-Jul-20 03:33N 44°19' E 008°30'1 0.5
2016-Jul-20 02:30N 44°18' E 008°29'0 0.0
2016-Jul-20 01:30N 44°18' E 008°29'0 0.0
2016-Jul-20 00:30N 44°18' E 008°29'0 0.0
2016-Jul-19 23:30N 44°18' E 008°29'0 0.0
2016-Jul-19 22:30N 44°18' E 008°29'0 0.0
2016-Jul-19 21:30N 44°18' E 008°29'0 0.0
2016-Jul-19 20:33N 44°18' E 008°29'0 0.0
2016-Jul-19 19:30N 44°18' E 008°29'0 0.0
2016-Jul-19 18:30N 44°18' E 008°29'0 0.0
2016-Jul-19 17:24N 44°18' E 008°29'0 0.0
2016-Jul-19 16:30N 44°18' E 008°29'0 0.0
2016-Jul-19 15:30N 44°18' E 008°29'0 0.0
2016-Jul-19 14:30N 44°18' E 008°29'0 0.0
2016-Jul-19 13:30N 44°18' E 008°29'0 0.0
2016-Jul-19 12:30N 44°18' E 008°29'0 0.0
2016-Jul-19 11:33N 44°18' E 008°29'0 0.0
2016-Jul-19 10:30N 44°18' E 008°29'0 0.0
2016-Jul-19 09:30N 44°18' E 008°29'0 0.0
2016-Jul-19 08:30N 44°18' E 008°29'0 0.0
2016-Jul-19 07:24N 44°18' E 008°29'0 0.0
2016-Jul-19 04:30N 44°18' E 008°29'0 0.0
2016-Jul-19 03:30N 44°18' E 008°29'0 0.0
2016-Jul-19 02:24N 44°18' E 008°29'0 0.0
2016-Jul-19 01:30N 44°18' E 008°29'0 0.0
2016-Jul-19 00:30N 44°18' E 008°29'0 0.0
2016-Jul-18 23:24N 44°18' E 008°29'0 0.0
2016-Jul-18 22:30N 44°18' E 008°29'0 0.0
2016-Jul-18 21:24N 44°18' E 008°29'0 0.0
2016-Jul-18 20:24N 44°18' E 008°29'0 0.0
2016-Jul-18 19:30N 44°18' E 008°29'0 0.0
2016-Jul-18 18:27N 44°18' E 008°29'0 0.0
2016-Jul-18 17:30N 44°18' E 008°29'0 0.0
2016-Jul-18 16:30N 44°18' E 008°29'0 0.5
2016-Jul-18 15:29N 44°19' E 008°30'0 0.5
2016-Jul-18 14:29N 44°18' E 008°29'0 0.0
2016-Jul-18 13:29N 44°18' E 008°29'0 0.0
2016-Jul-18 12:29N 44°18' E 008°29'0 0.0
2016-Jul-18 11:29N 44°18' E 008°29'0 0.0
2016-Jul-18 10:29N 44°18' E 008°29'0 0.0
2016-Jul-18 09:29N 44°18' E 008°29'0 0.0
2016-Jul-18 08:29N 44°18' E 008°29'0 0.0
2016-Jul-18 07:23N 44°18' E 008°29'0 0.0
2016-Jul-18 06:23N 44°18' E 008°29'0 0.0
2016-Jul-18 05:29N 44°18' E 008°29'0 0.0
2016-Jul-18 04:29N 44°18' E 008°29'0 0.0
2016-Jul-18 03:29N 44°18' E 008°29'0 0.0
2016-Jul-18 02:29N 44°18' E 008°29'0 0.0
2016-Jul-18 01:29N 44°18' E 008°29'0 0.0
2016-Jul-18 00:29N 44°18' E 008°29'0 0.0
2016-Jul-17 23:29N 44°18' E 008°29'0 0.0
2016-Jul-17 22:26N 44°18' E 008°29'0 0.0
2016-Jul-17 21:29N 44°18' E 008°29'0 0.0
2016-Jul-17 20:29N 44°18' E 008°29'0 0.0
2016-Jul-17 19:29N 44°18' E 008°29'0 0.0
2016-Jul-17 18:29N 44°18' E 008°29'0 0.0
2016-Jul-17 17:32N 44°18' E 008°29'  
Track history (hours):
 
Tides and Currents Weather Stations Pressure Air Temp Water Temp Dewpoint Dewpoint Depression Visibility Wind Speed Wind Dir Waves Ship Positions

Capo Vado

Last reported at 2016-Jul-27 17:23 UTC. Time now 2016-Jul-28 08:36 UTC.
Position N 44°18' E 008°29'.

Length 30 m; draft 4.5 m.

Type: Tug. MMSI: 247228400.

Date/timePositionNaut miles runAvg speedWind from/ knotsBaromVisibWave heightAir tempDewpointWater temp
2016-Jul-27 17:23N 44°18' E 008°29'0 0.1
2016-Jul-27 14:25N 44°19' E 008°30'0 0.3
2016-Jul-27 12:33N 44°19' E 008°30'3 2.8
2016-Jul-27 11:33N 44°17' E 008°28'3 3.2
2016-Jul-27 10:32N 44°19' E 008°31'1 0.9
2016-Jul-27 09:17N 44°18' E 008°29'0 0.0
2016-Jul-27 08:26N 44°18' E 008°29'0 0.0
2016-Jul-27 07:32N 44°18' E 008°29'0 0.0
2016-Jul-27 05:21N 44°18' E 008°29'1 1.0
2016-Jul-27 04:26N 44°19' E 008°30'1 0.5
2016-Jul-27 02:30N 44°18' E 008°29'0 0.0
2016-Jul-26 20:27N 44°18' E 008°29'0 0.0
2016-Jul-26 19:27N 44°18' E 008°29'0 0.0
2016-Jul-26 18:33N 44°18' E 008°29'0 0.0
2016-Jul-26 17:27N 44°18' E 008°29'0 0.0
2016-Jul-26 15:33N 44°18' E 008°29'0 0.0
2016-Jul-26 08:27N 44°18' E 008°29'0 0.0
2016-Jul-26 07:25N 44°18' E 008°29'2 2.3
2016-Jul-26 06:25N 44°17' E 008°28'1 0.7
2016-Jul-26 05:29N 44°16' E 008°28'3 3.7
2016-Jul-26 04:33N 44°19' E 008°30'1 0.7
2016-Jul-26 03:23N 44°18' E 008°29'0 0.0
2016-Jul-26 02:29N 44°18' E 008°29'0 0.0
2016-Jul-26 01:23N 44°18' E 008°29'0 0.0
2016-Jul-26 00:29N 44°18' E 008°29'0 0.0
2016-Jul-25 23:29N 44°18' E 008°29'0 0.0
2016-Jul-25 22:23N 44°18' E 008°29'0 0.0
2016-Jul-25 21:29N 44°18' E 008°29'0 0.0
2016-Jul-25 20:29N 44°18' E 008°29'0 0.0
2016-Jul-25 19:29N 44°18' E 008°29'0 0.0
2016-Jul-25 18:29N 44°18' E 008°29'0 0.0
2016-Jul-25 17:32N 44°18' E 008°29'0 0.0
2016-Jul-25 16:29N 44°18' E 008°29'0 0.0
2016-Jul-25 15:29N 44°18' E 008°29'0 0.0
2016-Jul-25 14:29N 44°18' E 008°29'0 0.0
2016-Jul-25 13:29N 44°18' E 008°29'0 0.0
2016-Jul-25 12:29N 44°18' E 008°29'0 0.0
2016-Jul-25 11:32N 44°18' E 008°29'0 0.0
2016-Jul-25 10:29N 44°18' E 008°29'0 0.0
2016-Jul-25 09:32N 44°18' E 008°29'0 0.0
2016-Jul-25 08:32N 44°18' E 008°29'0 0.0
2016-Jul-25 07:32N 44°18' E 008°29'0 0.0
2016-Jul-25 06:32N 44°18' E 008°29'0 0.0
2016-Jul-25 05:26N 44°18' E 008°29'0 0.0
2016-Jul-25 04:32N 44°18' E 008°29'0 0.0
2016-Jul-25 03:32N 44°18' E 008°29'0 0.0
2016-Jul-25 02:32N 44°18' E 008°29'0 0.0
2016-Jul-25 01:29N 44°18' E 008°29'0 0.0
2016-Jul-25 00:32N 44°18' E 008°29'0 0.0
2016-Jul-24 23:32N 44°18' E 008°29'0 0.0
2016-Jul-24 22:32N 44°18' E 008°29'0 0.0
2016-Jul-24 21:32N 44°18' E 008°29'0 0.0
2016-Jul-24 20:32N 44°18' E 008°29'0 0.0
2016-Jul-24 19:32N 44°18' E 008°29'0 0.0
2016-Jul-24 18:26N 44°18' E 008°29'0 0.0
2016-Jul-24 17:32N 44°18' E 008°29'0 0.0
2016-Jul-24 16:32N 44°18' E 008°29'0 0.0
2016-Jul-24 15:32N 44°18' E 008°29'0 0.0
2016-Jul-24 14:26N 44°18' E 008°29'0 0.0
2016-Jul-24 13:32N 44°18' E 008°29'0 0.0
2016-Jul-24 12:32N 44°18' E 008°29'0 0.0
2016-Jul-24 11:32N 44°18' E 008°29'0 0.0
2016-Jul-24 10:32N 44°18' E 008°29'0 0.0
2016-Jul-24 09:32N 44°18' E 008°29'0 0.0
2016-Jul-24 08:32N 44°18' E 008°29'0 0.0
2016-Jul-24 07:32N 44°18' E 008°29'0 0.0
2016-Jul-24 06:32N 44°18' E 008°29'0 0.0
2016-Jul-24 05:32N 44°18' E 008°29'0 0.0
2016-Jul-24 04:32N 44°18' E 008°29'0 0.0
2016-Jul-24 03:32N 44°18' E 008°29'0 0.0
2016-Jul-24 02:32N 44°18' E 008°29'0 0.0
2016-Jul-24 01:32N 44°18' E 008°29'0 0.0
2016-Jul-24 00:32N 44°18' E 008°29'0 0.0
2016-Jul-23 23:32N 44°18' E 008°29'0 0.0
2016-Jul-23 22:32N 44°18' E 008°29'0 0.0
2016-Jul-23 21:32N 44°18' E 008°29'0 0.0
2016-Jul-23 20:26N 44°18' E 008°29'0 0.0
2016-Jul-23 19:26N 44°18' E 008°29'0 0.0
2016-Jul-23 18:32N 44°18' E 008°29'0 0.0
2016-Jul-23 17:26N 44°18' E 008°29'0 0.0
2016-Jul-23 16:32N 44°18' E 008°29'0 0.0
2016-Jul-23 15:32N 44°18' E 008°29'0 0.0
2016-Jul-23 14:32N 44°18' E 008°29'0 0.0
2016-Jul-23 13:32N 44°18' E 008°29'0 0.0
2016-Jul-23 12:20N 44°18' E 008°29'0 0.0
2016-Jul-23 11:32N 44°18' E 008°29'0 0.0
2016-Jul-23 10:32N 44°18' E 008°29'0 0.0
2016-Jul-23 09:32N 44°18' E 008°29'0 0.0
2016-Jul-23 08:32N 44°18' E 008°29'0 0.0
2016-Jul-23 07:32N 44°18' E 008°29'0 0.0
2016-Jul-23 06:32N 44°18' E 008°29'0 0.0
2016-Jul-23 04:26N 44°18' E 008°29'0 0.0
2016-Jul-23 03:26N 44°18' E 008°29'0 0.0
2016-Jul-23 02:26N 44°18' E 008°29'0 0.0
2016-Jul-23 01:32N 44°18' E 008°29'0 0.0
2016-Jul-23 00:32N 44°18' E 008°29'0 0.0
2016-Jul-22 23:32N 44°18' E 008°29'0 0.0
2016-Jul-22 22:32N 44°18' E 008°29'0 0.0
2016-Jul-22 21:32N 44°18' E 008°29'0 0.0
2016-Jul-22 20:32N 44°18' E 008°29'0 0.0
2016-Jul-22 19:32N 44°18' E 008°29'0 0.0
2016-Jul-22 18:20N 44°18' E 008°29'3 3.9
2016-Jul-22 17:33N 44°16' E 008°27'4 3.5
2016-Jul-22 16:31N 44°19' E 008°30'1 0.6
2016-Jul-22 15:31N 44°18' E 008°29'0 0.0
2016-Jul-22 14:31N 44°18' E 008°29'0 0.0
2016-Jul-22 13:31N 44°18' E 008°29'0 0.0
2016-Jul-22 12:31N 44°18' E 008°29'0 0.0
2016-Jul-22 11:31N 44°18' E 008°29'0 0.0
2016-Jul-22 10:31N 44°18' E 008°29'0 0.0
2016-Jul-22 09:31N 44°18' E 008°29'0 0.0
2016-Jul-22 08:31N 44°18' E 008°29'0 0.0
2016-Jul-22 07:31N 44°18' E 008°29'3 1.5
2016-Jul-22 05:33N 44°16' E 008°28'2 1.5
2016-Jul-22 04:33N 44°17' E 008°29'1 1.4
2016-Jul-22 03:31N 44°18' E 008°29'0 0.0
2016-Jul-22 02:31N 44°18' E 008°29'0 0.0
2016-Jul-22 01:31N 44°18' E 008°29'0 0.0
2016-Jul-22 00:31N 44°18' E 008°29'0 0.0
2016-Jul-21 23:31N 44°18' E 008°29'0 0.0
2016-Jul-21 22:25N 44°18' E 008°29'0 0.0
2016-Jul-21 21:31N 44°18' E 008°29'0 0.0
2016-Jul-21 20:31N 44°18' E 008°29'0 0.0
2016-Jul-21 19:31N 44°18' E 008°29'0 0.0
2016-Jul-21 18:31N 44°18' E 008°29'0 0.0
2016-Jul-21 17:31N 44°18' E 008°29'0 0.0
2016-Jul-21 16:31N 44°18' E 008°29'0 0.0
2016-Jul-21 15:31N 44°18' E 008°29'0 0.0
2016-Jul-21 14:31N 44°18' E 008°29'0 0.0
2016-Jul-21 13:31N 44°18' E 008°29'0 0.0
2016-Jul-21 12:31N 44°18' E 008°29'0 0.0
2016-Jul-21 11:19N 44°18' E 008°29'0 0.0
2016-Jul-21 10:31N 44°18' E 008°29'0 0.3
2016-Jul-21 09:33N 44°19' E 008°30'0 0.3
2016-Jul-21 08:29N 44°18' E 008°29'0 0.0
2016-Jul-21 07:29N 44°18' E 008°29'0 0.0
2016-Jul-21 06:29N 44°18' E 008°29'0 0.0
2016-Jul-21 05:29N 44°18' E 008°29'0 0.0
2016-Jul-21 04:29N 44°18' E 008°29'0 0.0
2016-Jul-21 03:29N 44°18' E 008°29'0 0.0
2016-Jul-21 02:29N 44°18' E 008°29'0 0.0
2016-Jul-21 01:29N 44°18' E 008°29'0 0.0
2016-Jul-21 00:29N 44°18' E 008°29'0 0.0
2016-Jul-20 23:29N 44°18' E 008°29'0 0.0
2016-Jul-20 22:29N 44°18' E 008°29'0 0.0
2016-Jul-20 21:29N 44°18' E 008°29'0 0.0
2016-Jul-20 20:29N 44°18' E 008°29'0 0.0
2016-Jul-20 19:29N 44°18' E 008°29'0 0.0
2016-Jul-20 18:29N 44°18' E 008°29'0 0.0
2016-Jul-20 17:29N 44°18' E 008°29'0 0.0
2016-Jul-20 16:23N 44°18' E 008°29'0 0.0
2016-Jul-20 15:17N 44°18' E 008°29'0 0.0
2016-Jul-20 14:29N 44°18' E 008°29'0 0.0
2016-Jul-20 13:29N 44°18' E 008°29'0 0.0
2016-Jul-20 12:29N 44°18' E 008°29'0 0.0
2016-Jul-20 11:23N 44°18' E 008°29'0 0.0
2016-Jul-20 10:29N 44°18' E 008°29'0 0.0
2016-Jul-20 09:29N 44°18' E 008°29'0 0.0
2016-Jul-20 08:29N 44°18' E 008°29'0 0.0
2016-Jul-20 07:11N 44°18' E 008°29'0 0.0
2016-Jul-20 06:29N 44°18' E 008°29'0 0.0
2016-Jul-20 05:23N 44°18' E 008°29'0 0.0
2016-Jul-20 04:29N 44°18' E 008°29'1 0.6
2016-Jul-20 03:33N 44°19' E 008°30'1 0.5
2016-Jul-20 02:30N 44°18' E 008°29'0 0.0
2016-Jul-20 01:30N 44°18' E 008°29'0 0.0
2016-Jul-20 00:30N 44°18' E 008°29'0 0.0
2016-Jul-19 23:30N 44°18' E 008°29'0 0.0
2016-Jul-19 22:30N 44°18' E 008°29'0 0.0
2016-Jul-19 21:30N 44°18' E 008°29'0 0.0
2016-Jul-19 20:33N 44°18' E 008°29'0 0.0
2016-Jul-19 19:30N 44°18' E 008°29'0 0.0
2016-Jul-19 18:30N 44°18' E 008°29'0 0.0
2016-Jul-19 17:24N 44°18' E 008°29'0 0.0
2016-Jul-19 16:30N 44°18' E 008°29'0 0.0
2016-Jul-19 15:30N 44°18' E 008°29'0 0.0
2016-Jul-19 14:30N 44°18' E 008°29'0 0.0
2016-Jul-19 13:30N 44°18' E 008°29'0 0.0
2016-Jul-19 12:30N 44°18' E 008°29'0 0.0
2016-Jul-19 11:33N 44°18' E 008°29'0 0.0
2016-Jul-19 10:30N 44°18' E 008°29'0 0.0
2016-Jul-19 09:30N 44°18' E 008°29'0 0.0
2016-Jul-19 08:30N 44°18' E 008°29'0 0.0
2016-Jul-19 07:24N 44°18' E 008°29'0 0.0
2016-Jul-19 04:30N 44°18' E 008°29'0 0.0
2016-Jul-19 03:30N 44°18' E 008°29'0 0.0
2016-Jul-19 02:24N 44°18' E 008°29'0 0.0
2016-Jul-19 01:30N 44°18' E 008°29'0 0.0
2016-Jul-19 00:30N 44°18' E 008°29'0 0.0
2016-Jul-18 23:24N 44°18' E 008°29'0 0.0
2016-Jul-18 22:30N 44°18' E 008°29'0 0.0
2016-Jul-18 21:24N 44°18' E 008°29'0 0.0
2016-Jul-18 20:24N 44°18' E 008°29'0 0.0
2016-Jul-18 19:30N 44°18' E 008°29'0 0.0
2016-Jul-18 18:27N 44°18' E 008°29'0 0.0
2016-Jul-18 17:30N 44°18' E 008°29'0 0.0
2016-Jul-18 16:30N 44°18' E 008°29'0 0.5
2016-Jul-18 15:29N 44°19' E 008°30'0 0.5
2016-Jul-18 14:29N 44°18' E 008°29'0 0.0
2016-Jul-18 13:29N 44°18' E 008°29'0 0.0
2016-Jul-18 12:29N 44°18' E 008°29'0 0.0
2016-Jul-18 11:29N 44°18' E 008°29'0 0.0
2016-Jul-18 10:29N 44°18' E 008°29'0 0.0
2016-Jul-18 09:29N 44°18' E 008°29'0 0.0
2016-Jul-18 08:29N 44°18' E 008°29'0 0.0
2016-Jul-18 07:23N 44°18' E 008°29'0 0.0
2016-Jul-18 06:23N 44°18' E 008°29'0 0.0
2016-Jul-18 05:29N 44°18' E 008°29'0 0.0
2016-Jul-18 04:29N 44°18' E 008°29'0 0.0
2016-Jul-18 03:29N 44°18' E 008°29'0 0.0
2016-Jul-18 02:29N 44°18' E 008°29'0 0.0
2016-Jul-18 01:29N 44°18' E 008°29'0 0.0
2016-Jul-18 00:29N 44°18' E 008°29'0 0.0
2016-Jul-17 23:29N 44°18' E 008°29'0 0.0
2016-Jul-17 22:26N 44°18' E 008°29'0 0.0
2016-Jul-17 21:29N 44°18' E 008°29'0 0.0
2016-Jul-17 20:29N 44°18' E 008°29'0 0.0
2016-Jul-17 19:29N 44°18' E 008°29'0 0.0
2016-Jul-17 18:29N 44°18' E 008°29'0 0.0
2016-Jul-17 17:32N 44°18' E 008°29'  

Dump ship's entire track history